Rocklake, North Dakota
Current Conditions -  °F | °C
As of 1:55 AM on Monday 24 Nov 2014 (Local Time) from K06D Reporting Station
Clear Clear  
Wind Chill: -17°   Ceiling: Unl
Heat Index:   Visibility: 10mi
Dew Point:   Wind: 24mph
Humidity: 85%   Direction: 340°NNW
Pressure: 29.69"   Gusts: 33mph
Location:  48.79°N, 99.25°W
Report Text: K06D 240755Z AUTO 34021G29KT 10SM CLR M15/M17 A2969 RMK AO2
Loading
Personal Weather Stations






























Interactive Weather Map New forecast layout! Learn more

10-Day Weather Forecast

Advertisements
Track Severe Weather on mobile